createdAt,value
2022-09-11T03:01:21.919Z,25.3
2022-09-11T03:03:36.754Z,25.1
2022-09-11T03:05:51.610Z,25.9
2022-09-11T03:08:06.365Z,24.9
2022-09-11T03:10:21.244Z,25.3
2022-09-11T03:12:36.218Z,25.3
2022-09-11T03:14:50.903Z,25.6
2022-09-11T03:17:05.729Z,25.3
2022-09-11T03:19:20.625Z,25.6
2022-09-11T03:21:35.466Z,25.2
2022-09-11T03:23:50.338Z,25.3
2022-09-11T03:26:05.402Z,25.9
2022-09-11T03:28:20.022Z,25.8
2022-09-11T03:30:34.943Z,24.7
2022-09-11T03:32:49.628Z,25
2022-09-11T03:35:04.563Z,24.9
2022-09-11T03:37:19.374Z,25.3
2022-09-11T03:39:34.159Z,25.3
2022-09-11T03:41:49.009Z,24.7
2022-09-11T03:44:04.569Z,25.1
2022-09-11T03:46:18.719Z,25
2022-09-11T03:48:33.597Z,25.3
2022-09-11T03:50:48.432Z,24.9
2022-09-11T03:53:03.189Z,25.4
2022-09-11T03:55:18.069Z,25.7
2022-09-11T03:57:32.937Z,24.8
2022-09-11T03:59:47.761Z,25.3
2022-09-11T04:02:02.673Z,25.1
2022-09-11T04:04:17.478Z,25.6
2022-09-11T04:06:32.325Z,25
2022-09-11T04:08:47.158Z,25.5
2022-09-11T04:11:01.989Z,25.2
2022-09-11T04:13:16.789Z,25.6
2022-09-11T04:15:31.597Z,25.3
2022-09-11T04:17:46.705Z,25.2
2022-09-11T04:20:01.391Z,25.4
2022-09-11T04:22:16.230Z,25.3
2022-09-11T04:24:31.080Z,25.9
2022-09-11T04:26:45.905Z,25.5
2022-09-11T04:29:00.936Z,24.7
2022-09-11T04:31:15.589Z,25.3
2022-09-11T04:33:30.359Z,25.7
2022-09-11T04:35:45.331Z,25.8
2022-09-11T04:38:00.681Z,25.4
2022-09-11T04:40:14.991Z,24.7
2022-09-11T04:42:29.805Z,25.3
2022-09-11T04:44:44.546Z,25.2
2022-09-11T04:46:59.686Z,25.6
2022-09-11T04:49:14.476Z,25.9
2022-09-11T04:51:29.604Z,25.8
2022-09-11T04:53:44.428Z,25.3
2022-09-11T04:55:59.443Z,25.8
2022-09-11T04:58:14.299Z,24.4
2022-09-11T05:00:29.324Z,25.2
2022-09-11T05:02:44.238Z,25.4
2022-09-11T05:04:59.099Z,25.3
2022-09-11T05:07:14.147Z,25.3
2022-09-11T05:09:29.062Z,25.6
2022-09-11T05:11:44.103Z,25.4
2022-09-11T05:13:58.931Z,25.6
2022-09-11T05:16:14.059Z,25.7
2022-09-11T05:18:28.816Z,25.3
2022-09-11T05:20:43.913Z,24.9
2022-09-11T05:22:58.816Z,25.2
2022-09-11T05:25:13.854Z,25.1
2022-09-11T05:27:28.910Z,25.1
2022-09-11T05:29:43.564Z,25.2
2022-09-11T05:31:58.661Z,25.4
2022-09-11T05:34:13.444Z,24.9
2022-09-11T05:36:28.510Z,24.9
2022-09-11T05:38:43.410Z,24.8
2022-09-11T05:40:58.435Z,25.4
2022-09-11T05:43:13.359Z,25.1
2022-09-11T05:45:28.492Z,25.8
2022-09-11T05:47:43.497Z,26.2
2022-09-11T05:49:58.582Z,25.1
2022-09-11T05:52:13.923Z,24.9
2022-09-11T05:54:29.009Z,25.2
2022-09-11T05:56:44.202Z,25.1
2022-09-11T05:58:59.180Z,25.1
2022-09-11T06:01:14.506Z,25.6
2022-09-11T06:03:29.498Z,25.2
2022-09-11T06:05:45.341Z,25.2
2022-09-11T06:07:59.669Z,25.4
2022-09-11T06:10:14.812Z,25.6
2022-09-11T06:12:29.561Z,25.9
2022-09-11T06:14:44.622Z,25
2022-09-11T06:17:15.314Z,26
2022-09-11T06:19:30.137Z,25.9
2022-09-11T06:21:45.004Z,26.1
2022-09-11T06:23:59.913Z,25.5
2022-09-11T06:26:14.779Z,25.7
2022-09-11T06:28:29.515Z,25.3
2022-09-11T06:30:44.805Z,25.4
2022-09-11T06:32:59.413Z,25.9
2022-09-11T06:35:14.460Z,25.4
2022-09-11T06:37:29.287Z,26.1
2022-09-11T06:39:44.149Z,25.8
2022-09-11T06:41:59.224Z,26.1
2022-09-11T06:44:14.074Z,25.4
2022-09-11T06:46:29.453Z,25.6
2022-09-11T06:48:44.159Z,26.1
2022-09-11T06:50:59.163Z,25.6
2022-09-11T06:53:14.222Z,24.9
2022-09-11T06:55:29.824Z,25.3
2022-09-11T06:57:44.858Z,25.1
2022-09-11T06:59:59.977Z,25.2
2022-09-11T07:02:15.450Z,25.4
2022-09-11T07:04:30.553Z,25.4
2022-09-11T07:06:46.723Z,25.4
2022-09-11T07:09:00.799Z,25.3
2022-09-11T07:11:16.338Z,25.3
2022-09-11T07:13:35.508Z,25.3
2022-09-11T07:16:05.598Z,25.1
2022-09-11T07:18:20.475Z,25.4
2022-09-11T07:20:35.719Z,25.4
2022-09-11T07:22:50.614Z,25.4
2022-09-11T07:25:07.620Z,25.3
2022-09-11T07:27:27.839Z,25.6
2022-09-11T07:29:42.907Z,25.3
2022-09-11T07:32:03.440Z,25.4
2022-09-11T07:34:18.297Z,25.6
2022-09-11T07:38:58.635Z,25.3
2022-09-11T07:41:03.514Z,25.4
2022-09-11T07:43:18.286Z,25.5
2022-09-11T07:45:38.351Z,25.4
2022-09-11T07:47:53.210Z,25.4
2022-09-11T07:50:08.883Z,25.6
2022-09-11T07:52:23.965Z,25.4
2022-09-11T07:54:38.884Z,25.4
2022-09-11T07:56:54.271Z,25.6
2022-09-11T07:59:08.159Z,25.8
2022-09-11T08:01:23.343Z,25.6
2022-09-11T08:03:38.795Z,25.7
2022-09-11T08:05:54.048Z,25.3
2022-09-11T08:08:09.438Z,25.6
2022-09-11T08:10:41.666Z,25.6
2022-09-11T08:12:59.537Z,25.6
2022-09-11T08:15:10.774Z,25.7
2022-09-11T08:17:25.736Z,25.8
2022-09-11T08:19:40.368Z,25.7
2022-09-11T08:21:55.373Z,25.7
2022-09-11T08:24:10.070Z,25.7
2022-09-11T08:26:24.964Z,25.8
2022-09-11T08:28:39.863Z,25.8
2022-09-11T08:30:54.804Z,25.8
2022-09-11T08:33:09.535Z,25.8
2022-09-11T08:35:24.354Z,25.7
2022-09-11T08:37:39.148Z,25.8
2022-09-11T08:39:54.014Z,25.9
2022-09-11T08:42:08.817Z,25.8
2022-09-11T08:44:23.677Z,25.9
2022-09-11T08:46:38.565Z,25.9
2022-09-11T08:48:53.452Z,25.9
2022-09-11T08:51:08.330Z,25.9
2022-09-11T08:53:23.307Z,25.8
2022-09-11T08:55:38.121Z,25.9
2022-09-11T08:57:52.834Z,25.8
2022-09-11T09:01:06.993Z,25.4
2022-09-11T09:01:23.898Z,26
2022-09-11T09:03:36.730Z,25.9
2022-09-11T09:05:51.670Z,25.9
2022-09-11T09:08:06.465Z,25.9
2022-09-11T09:10:21.323Z,25.8
2022-09-11T09:12:36.142Z,25.9
2022-09-11T09:14:51.186Z,26
2022-09-11T09:17:05.878Z,26
2022-09-11T09:19:20.695Z,25.9
2022-09-11T09:21:35.468Z,26
2022-09-11T09:23:50.313Z,26
2022-09-11T09:26:05.229Z,25.9
2022-09-11T09:28:19.944Z,26
2022-09-11T09:30:34.917Z,25.8
2022-09-11T09:32:49.775Z,25.9
2022-09-11T09:35:04.544Z,26
2022-09-11T09:37:19.512Z,25.9
2022-09-11T09:39:34.323Z,25.9
2022-09-11T09:41:49.112Z,26.1
2022-09-11T09:44:03.927Z,26.1
2022-09-11T09:46:18.893Z,26.1
2022-09-11T09:48:33.652Z,26.1
2022-09-11T09:50:48.505Z,26.1
2022-09-11T09:53:03.381Z,25.9
2022-09-11T09:55:18.150Z,25.9
2022-09-11T09:57:33.102Z,25.9
2022-09-11T09:59:47.879Z,25.9
2022-09-11T10:02:02.739Z,26.2
2022-09-11T10:04:17.515Z,26.1
2022-09-11T10:06:32.325Z,26
2022-09-11T10:08:47.222Z,26
2022-09-11T10:11:02.454Z,26.1
2022-09-11T10:13:20.792Z,25.9
2022-09-11T10:15:52.327Z,26.3
2022-09-11T10:18:07.130Z,26.2
2022-09-11T10:20:22.040Z,25.9
2022-09-11T10:22:36.788Z,25.9
2022-09-11T10:24:51.563Z,26.1
2022-09-11T10:27:06.444Z,25.9
2022-09-11T10:29:21.253Z,26
2022-09-11T10:31:36.354Z,26.1
2022-09-11T10:33:51.004Z,26.1
2022-09-11T10:36:05.884Z,26.1
2022-09-11T10:38:20.704Z,26
2022-09-11T10:40:35.600Z,26.2
2022-09-11T10:42:50.359Z,25.9
2022-09-11T10:45:05.252Z,26.1
2022-09-11T10:47:19.974Z,26
2022-09-11T10:49:34.958Z,26.3
2022-09-11T10:51:49.685Z,26.1
2022-09-11T10:54:04.711Z,26.3
2022-09-11T10:56:19.507Z,26.3
2022-09-11T10:58:34.376Z,26
2022-09-11T11:00:49.063Z,26.1
2022-09-11T11:03:03.991Z,26.1
2022-09-11T11:05:18.861Z,26.2
2022-09-11T11:07:33.668Z,25.9
2022-09-11T11:09:48.516Z,25.9
2022-09-11T11:12:03.431Z,26.1
2022-09-11T11:14:18.157Z,26.2
2022-09-11T11:16:36.105Z,26.1
2022-09-11T11:18:51.065Z,26.3
2022-09-11T11:21:05.818Z,26.3
2022-09-11T11:23:20.884Z,26.3
2022-09-11T11:25:35.665Z,25.9
2022-09-11T11:27:50.570Z,26.3
2022-09-11T11:30:05.152Z,26.2
2022-09-11T11:32:19.963Z,26
2022-09-11T11:34:35.057Z,26.1
2022-09-11T11:36:49.625Z,26.1
2022-09-11T11:39:05.120Z,26.1
2022-09-11T11:41:19.429Z,26.2
2022-09-11T11:43:34.205Z,26.3
2022-09-11T11:45:49.088Z,26.2
2022-09-11T11:48:04.026Z,26.1
2022-09-11T11:50:18.763Z,26.3
2022-09-11T11:52:34.241Z,26.3
2022-09-11T11:54:48.448Z,26.4
2022-09-11T11:57:03.452Z,26.3
2022-09-11T11:59:18.138Z,26.3
2022-09-11T12:01:33.066Z,26.1
2022-09-11T12:03:47.859Z,26
2022-09-11T12:06:02.838Z,25.9
2022-09-11T12:08:23.823Z,26.1
2022-09-11T12:11:05.884Z,26.2
2022-09-11T12:13:20.912Z,26.4
2022-09-11T12:15:36.236Z,26.5
2022-09-11T12:18:02.014Z,26.3
2022-09-11T12:20:16.812Z,26.1
2022-09-11T12:22:31.708Z,26
2022-09-11T12:24:46.557Z,26.4
2022-09-11T12:27:01.540Z,25.9
2022-09-11T12:29:16.208Z,26
2022-09-11T12:31:31.240Z,26.1
2022-09-11T12:33:45.908Z,26.2
2022-09-11T12:36:00.867Z,25.8
2022-09-11T12:38:15.603Z,25.8
2022-09-11T12:40:30.609Z,26
2022-09-11T12:42:45.305Z,26.3
2022-09-11T12:45:00.257Z,25.9
2022-09-11T12:47:15.121Z,26.1
2022-09-11T12:49:38.844Z,25.9
2022-09-11T12:51:53.678Z,25.9
2022-09-11T12:54:08.667Z,26.3
2022-09-11T12:56:23.443Z,26.1
2022-09-11T12:58:38.246Z,26.1
2022-09-11T13:00:53.041Z,26.1
2022-09-11T13:03:07.956Z,26.1
2022-09-11T13:05:22.855Z,26
2022-09-11T13:07:37.631Z,26.1
2022-09-11T13:09:52.451Z,26.1
2022-09-11T13:12:07.279Z,25.9
2022-09-11T13:14:22.081Z,25.9
2022-09-11T13:16:37.008Z,26.1
2022-09-11T13:18:51.905Z,26.2
2022-09-11T13:21:06.698Z,26
2022-09-11T13:23:21.570Z,26.2
2022-09-11T13:25:36.484Z,25.9
2022-09-11T13:27:51.613Z,26.1
2022-09-11T13:30:06.088Z,25.8
2022-09-11T13:32:21.111Z,26.1
2022-09-11T13:34:35.794Z,25.8
2022-09-11T13:36:53.429Z,25.9
2022-09-11T13:39:05.625Z,26.1
2022-09-11T13:41:20.311Z,26.4
2022-09-11T13:43:35.191Z,25.9
2022-09-11T13:45:50.101Z,26.2
2022-09-11T13:48:04.910Z,26.1
2022-09-11T13:50:19.680Z,26
2022-09-11T13:52:34.456Z,25.7
2022-09-11T13:54:49.404Z,26.1
2022-09-11T13:57:04.201Z,26.3
2022-09-11T13:59:19.124Z,25.9
2022-09-11T14:01:33.820Z,26.1
2022-09-11T14:03:48.677Z,25.9
2022-09-11T14:06:03.657Z,25.9
2022-09-11T14:08:21.559Z,26.1
2022-09-11T14:10:18.287Z,26.2
2022-09-11T14:10:33.375Z,26
2022-09-11T14:12:48.217Z,26.1
2022-09-11T14:15:03.171Z,25.8
2022-09-11T14:17:18.227Z,26.2
2022-09-11T14:19:33.061Z,26
2022-09-11T14:21:47.977Z,26.2
2022-09-11T14:24:03.090Z,26.1
2022-09-11T14:26:17.910Z,26
2022-09-11T14:28:32.810Z,25.9
2022-09-11T14:30:47.891Z,26.1
2022-09-11T14:33:02.635Z,26.1
2022-09-11T14:35:17.494Z,26.1
2022-09-11T14:37:32.659Z,26.1
2022-09-11T14:39:47.488Z,25.8
2022-09-11T14:42:02.622Z,25.9
2022-09-11T14:44:17.402Z,26
2022-09-11T14:46:32.529Z,26.3
2022-09-11T14:48:47.326Z,26.4
2022-09-11T14:51:02.436Z,27.3
2022-09-11T14:53:17.296Z,25.7
2022-09-11T14:55:32.293Z,25.4
2022-09-11T14:57:47.083Z,25.8
2022-09-11T15:03:36.357Z,25.3
2022-09-11T15:05:51.292Z,25.7
2022-09-11T15:08:06.360Z,25.4
2022-09-11T15:10:21.489Z,25.6
2022-09-11T15:12:36.341Z,25.6
2022-09-11T15:15:14.500Z,25.9
2022-09-11T15:17:31.355Z,25.6
2022-09-11T15:19:44.632Z,25.6
2022-09-11T15:21:59.454Z,25.7
2022-09-11T15:24:14.622Z,25.4
2022-09-11T15:26:29.759Z,25.5
2022-09-11T15:28:44.781Z,25.4
2022-09-11T15:30:59.910Z,25.5
2022-09-11T15:33:14.659Z,25.4
2022-09-11T15:35:32.848Z,25.8
2022-09-11T15:37:44.521Z,25.6
2022-09-11T15:39:59.874Z,25.4
2022-09-11T15:42:14.603Z,25.6
2022-09-11T15:44:29.970Z,25.8
2022-09-11T15:46:44.639Z,25.4
2022-09-11T15:48:59.485Z,25.9
2022-09-11T15:51:14.449Z,25.6
2022-09-11T15:53:29.373Z,25.4
2022-09-11T15:55:44.347Z,25.8
2022-09-11T15:57:59.416Z,25.5
2022-09-11T16:00:14.401Z,25.7
2022-09-11T16:02:29.434Z,25.4
2022-09-11T16:04:44.559Z,25.4
2022-09-11T16:06:59.632Z,25.5
2022-09-11T16:09:14.832Z,25.5
2022-09-11T16:11:29.735Z,25.4
2022-09-11T16:13:44.860Z,25.5
2022-09-11T16:15:59.775Z,25.6
2022-09-11T16:18:14.787Z,25.6
2022-09-11T16:20:31.108Z,25.6
2022-09-11T16:22:44.772Z,25.8
2022-09-11T16:24:59.801Z,25.6
2022-09-11T16:27:14.857Z,25.4
2022-09-11T16:29:44.261Z,25.6
2022-09-11T16:32:29.707Z,25.5
2022-09-11T16:34:44.556Z,25.8
2022-09-11T16:36:59.968Z,25.4
2022-09-11T16:39:14.977Z,25.6
2022-09-11T16:41:30.408Z,25.4
2022-09-11T16:43:45.422Z,25.4
2022-09-11T16:46:00.730Z,25.4
2022-09-11T16:48:15.738Z,25.4
2022-09-11T16:50:40.850Z,25.3
2022-09-11T16:52:55.883Z,25.4
2022-09-11T16:55:10.869Z,25.4
2022-09-11T16:57:25.949Z,25.4
2022-09-11T16:59:41.087Z,25.4
2022-09-11T17:01:56.094Z,25.3
2022-09-11T17:04:11.152Z,25.4
2022-09-11T17:06:26.135Z,25.5
2022-09-11T17:08:42.566Z,25.5
2022-09-11T17:10:56.270Z,25.7
2022-09-11T17:13:11.095Z,25.5
2022-09-11T17:15:26.176Z,25.5
2022-09-11T17:17:41.264Z,25.3
2022-09-11T17:19:56.236Z,25.6
2022-09-11T17:22:11.259Z,25.4
2022-09-11T17:24:26.357Z,25.4
2022-09-11T17:26:41.295Z,25.4
2022-09-11T17:28:56.269Z,25.6
2022-09-11T17:31:11.327Z,25.6
2022-09-11T17:33:41.366Z,25.4
2022-09-11T17:35:56.505Z,25.4
2022-09-11T17:38:11.194Z,25.4
2022-09-11T17:40:26.104Z,25.4
2022-09-11T17:42:41.062Z,25.4
2022-09-11T17:44:55.875Z,25.4
2022-09-11T17:47:10.953Z,25.4
2022-09-11T17:49:25.699Z,25.4
2022-09-11T17:51:40.600Z,25.4
2022-09-11T17:53:55.781Z,25.4
2022-09-11T17:56:10.287Z,25.4
2022-09-11T17:58:25.373Z,25.4
2022-09-11T18:00:40.081Z,25.6
2022-09-11T18:02:55.031Z,25.4
2022-09-11T18:05:09.863Z,25.3
2022-09-11T18:07:24.719Z,25.6
2022-09-11T18:09:39.650Z,25.6
2022-09-11T18:11:54.827Z,25.4
2022-09-11T18:14:09.596Z,25.4
2022-09-11T18:16:24.333Z,25.3
2022-09-11T18:18:39.255Z,25.4
2022-09-11T18:20:54.081Z,25.3
2022-09-11T18:23:09.734Z,25.4
2022-09-11T18:25:23.868Z,25.6
2022-09-11T18:27:39.806Z,25.3
2022-09-11T18:29:53.841Z,25.2
2022-09-11T18:32:10.074Z,25.2
2022-09-11T18:34:23.654Z,25.4
2022-09-11T18:36:38.709Z,25.3
2022-09-11T18:38:53.607Z,25.3
2022-09-11T18:41:08.370Z,25.6
2022-09-11T18:43:23.260Z,25.3
2022-09-11T18:45:38.265Z,25.4
2022-09-11T18:47:53.427Z,25.3
2022-09-11T18:50:07.936Z,25.6
2022-09-11T18:52:26.127Z,25.7
2022-09-11T18:54:38.059Z,25.1
2022-09-11T18:56:53.044Z,25.3
2022-09-11T18:59:07.799Z,25.1
2022-09-11T19:01:23.090Z,25.3
2022-09-11T19:03:37.784Z,25.3
2022-09-11T19:05:52.723Z,25.3
2022-09-11T19:08:07.930Z,25.6
2022-09-11T19:10:22.760Z,25.4
2022-09-11T19:12:37.730Z,25.1
2022-09-11T19:14:52.706Z,25.6
2022-09-11T19:16:52.691Z,25.1
2022-09-11T19:17:07.659Z,25.6
2022-09-11T19:19:22.525Z,25.5
2022-09-11T19:21:37.574Z,25.4
2022-09-11T19:23:52.516Z,25.2
2022-09-11T19:26:07.495Z,25.5
2022-09-11T19:28:22.497Z,25.4
2022-09-11T19:30:41.263Z,25.2
2022-09-11T19:32:52.474Z,25.4
2022-09-11T19:35:07.387Z,25.6
2022-09-11T19:37:22.496Z,25.3
2022-09-11T19:39:37.435Z,25.3
2022-09-11T19:41:52.356Z,25
2022-09-11T19:44:07.191Z,25.4
2022-09-11T19:46:22.111Z,25.7
2022-09-11T19:48:36.957Z,25.7
2022-09-11T19:50:51.768Z,25.3
2022-09-11T19:53:07.145Z,25.4
2022-09-11T19:55:21.810Z,25.1
2022-09-11T19:57:36.911Z,25.3
2022-09-11T19:59:52.016Z,25.3
2022-09-11T20:02:07.028Z,25.3
2022-09-11T20:04:22.204Z,25.2
2022-09-11T20:06:37.075Z,25.4
2022-09-11T20:08:59.151Z,25.3
2022-09-11T20:11:27.521Z,25.5
2022-09-11T20:13:42.586Z,25.4
2022-09-11T20:15:57.669Z,25.4
2022-09-11T20:18:12.662Z,25.1
2022-09-11T20:20:27.690Z,25.2
2022-09-11T20:22:42.569Z,25.3
2022-09-11T20:24:57.982Z,25.3
2022-09-11T20:27:12.610Z,25.3
2022-09-11T20:29:27.500Z,25.4
2022-09-11T20:31:47.317Z,25.1
2022-09-11T20:33:57.541Z,25.3
2022-09-11T20:36:12.553Z,25.3
2022-09-11T20:38:27.577Z,25.3
2022-09-11T20:40:42.796Z,25.2
2022-09-11T20:42:57.660Z,25.3
2022-09-11T20:45:12.605Z,25.2
2022-09-11T20:47:27.894Z,25.1
2022-09-11T20:49:42.744Z,25.1
2022-09-11T20:51:57.723Z,25.2
2022-09-11T20:54:12.839Z,25.3
2022-09-11T20:56:27.856Z,25.3
2022-09-11T20:58:42.788Z,25.3
2022-09-11T21:01:21.905Z,25.2
2022-09-11T21:03:36.705Z,25.4
2022-09-11T21:05:51.713Z,25.1
2022-09-11T21:08:06.659Z,25.2
2022-09-11T21:10:21.598Z,25.8
2022-09-11T21:12:36.478Z,25.5
2022-09-11T21:14:51.627Z,25.1
2022-09-11T21:17:06.641Z,25.1
2022-09-11T21:19:21.477Z,25.6
2022-09-11T21:21:36.720Z,25.6
2022-09-11T21:23:51.464Z,25.2
2022-09-11T21:26:06.585Z,25.1
2022-09-11T21:28:21.699Z,25.1
2022-09-11T21:30:36.646Z,24.9
2022-09-11T21:32:51.777Z,25.2
2022-09-11T21:35:06.935Z,25.2
2022-09-11T21:37:21.482Z,25.1
2022-09-11T21:39:55.933Z,25.1
2022-09-11T21:42:11.953Z,25
2022-09-11T21:44:30.251Z,24.9
2022-09-11T21:46:45.633Z,25.1
2022-09-11T21:49:00.573Z,25.3
2022-09-11T21:51:15.652Z,25.3
2022-09-11T21:53:30.535Z,25.1
2022-09-11T21:55:50.658Z,25.7
2022-09-11T21:58:05.760Z,25.3
2022-09-11T22:00:20.858Z,25
2022-09-11T22:02:41.445Z,25.3
2022-09-11T22:04:56.334Z,25.4
2022-09-11T22:07:11.663Z,25.2
2022-09-11T22:09:34.640Z,25.2
2022-09-11T22:11:41.784Z,25.1
2022-09-11T22:14:01.027Z,25.1
2022-09-11T22:16:16.158Z,25.1
2022-09-11T22:18:31.151Z,25.2
2022-09-11T22:20:45.469Z,25.1
2022-09-11T22:23:01.019Z,25.8
2022-09-11T22:25:16.028Z,25.3
2022-09-11T22:27:30.991Z,25.3
2022-09-11T22:29:48.111Z,25.1
2022-09-11T22:32:01.083Z,25
2022-09-11T22:34:16.225Z,25.4
2022-09-11T22:36:36.632Z,25.3
2022-09-11T22:38:51.666Z,25.6
2022-09-11T22:41:06.772Z,25.1
2022-09-11T22:43:21.913Z,25.1
2022-09-11T22:45:36.344Z,25
2022-09-11T22:47:51.767Z,25.8
2022-09-11T22:50:06.816Z,25.5
2022-09-11T22:52:21.788Z,25.1
2022-09-11T22:54:36.695Z,25.7
2022-09-11T22:56:51.859Z,25.1
2022-09-11T22:59:06.957Z,25
2022-09-11T23:01:22.568Z,25.2
2022-09-11T23:03:45.681Z,25.1
2022-09-11T23:06:01.418Z,25.1
2022-09-11T23:08:16.405Z,24.9
2022-09-11T23:10:36.805Z,25.3
2022-09-11T23:12:51.937Z,25.3
2022-09-11T23:15:07.192Z,24.9
2022-09-11T23:17:22.305Z,25.1
2022-09-11T23:19:37.415Z,25.1
2022-09-11T23:21:52.568Z,25.2
2022-09-11T23:24:15.480Z,25
2022-09-11T23:26:22.702Z,25.3
2022-09-11T23:28:37.853Z,25
2022-09-11T23:30:52.921Z,25.1
2022-09-11T23:33:15.650Z,25.1
2022-09-11T23:35:35.544Z,25.2
2022-09-11T23:37:46.297Z,25.1
2022-09-11T23:40:01.326Z,25.2
2022-09-11T23:42:16.405Z,25
